createdAt,value
2022-12-11T00:00:00.780Z,0.73
2022-12-11T00:02:30.198Z,0.80
2022-12-11T00:04:57.626Z,0.70
2022-12-11T00:07:25.240Z,0.80
2022-12-11T00:09:52.882Z,0.75
2022-12-11T00:12:20.431Z,0.70
2022-12-11T00:14:48.057Z,0.65
2022-12-11T00:17:15.592Z,0.55
2022-12-11T00:19:43.684Z,0.50
2022-12-11T00:22:11.435Z,0.82
2022-12-11T00:24:39.151Z,0.73
2022-12-11T00:27:06.851Z,0.88
2022-12-11T00:29:34.565Z,0.80
2022-12-11T00:32:02.369Z,0.68
2022-12-11T00:34:30.184Z,0.73
2022-12-11T00:36:59.254Z,0.60
2022-12-11T00:39:26.937Z,0.50
2022-12-11T00:41:54.633Z,0.70
2022-12-11T00:44:22.203Z,0.80
2022-12-11T00:46:50.051Z,0.70
2022-12-11T00:49:17.526Z,0.70
2022-12-11T00:51:45.437Z,0.68
2022-12-11T00:54:13.037Z,0.70
2022-12-11T00:56:40.753Z,0.85
2022-12-11T00:59:08.602Z,0.68
2022-12-11T01:01:36.807Z,0.68
2022-12-11T01:04:04.444Z,0.77
2022-12-11T01:06:32.114Z,0.77
2022-12-11T01:09:18.408Z,0.85
2022-12-11T01:11:46.024Z,0.80
2022-12-11T01:14:14.705Z,0.70
2022-12-11T01:16:42.340Z,0.75
2022-12-11T01:19:09.876Z,0.63
2022-12-11T01:21:37.563Z,0.65
2022-12-11T01:24:05.335Z,0.50
2022-12-11T01:26:33.296Z,0.45
2022-12-11T01:29:01.518Z,0.57
2022-12-11T01:31:29.228Z,0.63
2022-12-11T01:33:57.052Z,0.65
2022-12-11T01:36:25.403Z,0.75
2022-12-11T01:38:54.496Z,0.60
2022-12-11T01:41:22.387Z,0.90
2022-12-11T01:44:04.738Z,0.65
2022-12-11T01:46:35.169Z,0.82
2022-12-11T01:49:04.656Z,0.50
2022-12-11T01:51:35.407Z,0.90
2022-12-11T01:54:08.387Z,0.60
2022-12-11T01:56:36.666Z,0.50
2022-12-11T01:59:07.471Z,0.65
2022-12-11T02:01:42.500Z,0.60
2022-12-11T02:04:11.112Z,0.73
2022-12-11T02:06:42.929Z,0.80
2022-12-11T02:09:17.528Z,0.93
2022-12-11T02:12:00.626Z,0.70
2022-12-11T02:14:28.198Z,1.00
2022-12-11T02:17:39.175Z,0.70
2022-12-11T02:20:09.532Z,0.82
2022-12-11T02:22:37.185Z,0.70
2022-12-11T02:25:11.850Z,0.80
2022-12-11T02:27:57.402Z,0.77
2022-12-11T02:30:25.291Z,0.75
2022-12-11T02:32:59.525Z,0.50
2022-12-11T02:35:32.406Z,0.68
2022-12-11T02:38:02.905Z,0.73
2022-12-11T02:40:35.564Z,0.70
2022-12-11T02:43:07.059Z,0.60
2022-12-11T02:45:36.130Z,0.50
2022-12-11T02:48:04.797Z,0.73
2022-12-11T02:50:32.973Z,0.82
2022-12-11T02:53:04.381Z,0.85
2022-12-11T02:55:33.645Z,0.68
2022-12-11T02:58:13.361Z,0.70
2022-12-11T03:00:41.848Z,0.90
2022-12-11T03:03:12.667Z,1.00
2022-12-11T03:05:40.622Z,0.73
2022-12-11T03:08:08.600Z,0.50
2022-12-11T03:10:36.266Z,0.88
2022-12-11T03:13:04.157Z,0.82
2022-12-11T03:15:59.348Z,0.65
2022-12-11T03:18:44.012Z,0.90
2022-12-11T03:21:27.305Z,0.70
2022-12-11T03:24:05.403Z,0.70
2022-12-11T03:26:42.145Z,0.55
2022-12-11T03:29:26.273Z,0.80
2022-12-11T03:32:05.530Z,0.52
2022-12-11T03:34:45.963Z,0.65
2022-12-11T03:37:15.255Z,0.63
2022-12-11T03:39:52.595Z,0.75
2022-12-11T03:42:22.061Z,0.60
2022-12-11T03:44:55.736Z,0.85
2022-12-11T03:47:26.420Z,0.95
2022-12-11T03:49:54.759Z,0.80
2022-12-11T03:52:23.028Z,0.57
2022-12-11T03:54:51.601Z,0.75
2022-12-11T03:57:22.853Z,0.75
2022-12-11T03:59:51.358Z,0.60
2022-12-11T04:02:19.511Z,1.08
2022-12-11T04:04:47.234Z,0.90
2022-12-11T04:07:14.786Z,0.75
2022-12-11T04:09:42.277Z,0.60
2022-12-11T04:12:09.953Z,0.70
2022-12-11T04:14:55.816Z,0.60
2022-12-11T04:17:42.090Z,0.88
2022-12-11T04:20:29.884Z,0.90
2022-12-11T04:23:16.222Z,1.08
2022-12-11T04:25:43.923Z,0.57
2022-12-11T04:28:11.658Z,0.90
2022-12-11T04:30:39.437Z,0.80
2022-12-11T04:33:07.232Z,0.70
2022-12-11T04:35:34.967Z,0.90
2022-12-11T04:38:05.634Z,0.70
2022-12-11T04:40:33.366Z,0.68
2022-12-11T04:43:00.914Z,0.55
2022-12-11T04:45:28.476Z,0.73
2022-12-11T04:47:56.156Z,0.88
2022-12-11T04:50:23.889Z,1.30
2022-12-11T04:52:51.705Z,0.70
2022-12-11T04:55:19.649Z,0.63
2022-12-11T04:57:47.311Z,0.55
2022-12-11T05:00:16.210Z,0.70
2022-12-11T05:02:44.145Z,1.13
2022-12-11T05:05:12.103Z,0.88
2022-12-11T05:07:41.033Z,1.05
2022-12-11T05:10:09.385Z,1.73
2022-12-11T05:12:37.162Z,0.80
2022-12-11T05:15:04.874Z,8.07
2022-12-11T05:17:32.632Z,6.63
2022-12-11T05:20:00.237Z,11.45
2022-12-11T05:22:27.922Z,5.68
2022-12-11T05:24:55.657Z,12.43
2022-12-11T05:27:23.299Z,15.20
2022-12-11T05:29:53.653Z,27.25
2022-12-11T05:32:25.612Z,24.67
2022-12-11T05:34:53.061Z,30.98
2022-12-11T05:37:23.125Z,28.88
2022-12-11T05:39:50.948Z,26.95
2022-12-11T05:42:21.746Z,26.85
2022-12-11T05:44:51.964Z,35.22
2022-12-11T05:47:22.051Z,37.17
2022-12-11T05:49:49.717Z,33.42
2022-12-11T05:52:17.464Z,28.05
2022-12-11T05:54:45.129Z,40.53
2022-12-11T05:57:12.760Z,43.92
2022-12-11T05:59:41.277Z,44.55
2022-12-11T06:02:11.534Z,45.22
2022-12-11T06:04:39.174Z,47.13
2022-12-11T06:07:07.151Z,48.75
2022-12-11T06:09:34.843Z,52.53
2022-12-11T06:12:02.566Z,49.22
2022-12-11T06:14:30.268Z,26.02
2022-12-11T06:16:57.923Z,53.25
2022-12-11T06:19:25.499Z,57.95
2022-12-11T06:21:53.053Z,57.53
2022-12-11T06:24:20.707Z,57.30
2022-12-11T06:26:48.415Z,57.42
2022-12-11T06:29:16.331Z,0.30
2022-12-11T06:31:44.016Z,0.68
2022-12-11T06:34:13.773Z,0.50
2022-12-11T06:36:41.641Z,0.57
2022-12-11T06:39:11.422Z,0.63
2022-12-11T06:41:39.196Z,0.60
2022-12-11T06:44:06.918Z,0.70
2022-12-11T06:46:34.652Z,0.60
2022-12-11T06:49:02.332Z,0.63
2022-12-11T06:51:30.271Z,0.50
2022-12-11T06:53:57.920Z,0.60
2022-12-11T06:56:25.964Z,10.15
2022-12-11T06:58:53.658Z,37.85
2022-12-11T07:01:24.716Z,35.85
2022-12-11T07:03:59.764Z,35.10
2022-12-11T07:06:28.524Z,38.28
2022-12-11T07:08:56.204Z,33.53
2022-12-11T07:11:24.286Z,43.67
2022-12-11T07:13:52.306Z,52.63
2022-12-11T07:16:20.175Z,46.00
2022-12-11T07:18:50.542Z,51.15
2022-12-11T07:23:46.776Z,59.90
2022-12-11T07:26:16.695Z,57.78
2022-12-11T07:28:45.242Z,54.53
2022-12-11T07:31:15.901Z,52.70
2022-12-11T07:33:44.052Z,51.45
2022-12-11T07:36:13.658Z,51.63
2022-12-11T07:38:41.499Z,53.08
2022-12-11T07:41:13.192Z,50.40
2022-12-11T07:43:40.974Z,53.22
2022-12-11T07:46:14.759Z,55.88
2022-12-11T07:48:44.230Z,58.17
2022-12-11T07:51:20.284Z,56.03
2022-12-11T07:53:49.691Z,50.33
2022-12-11T07:56:18.472Z,45.38
2022-12-11T07:58:46.508Z,60.08
2022-12-11T08:01:17.971Z,49.60
2022-12-11T08:03:45.679Z,55.95
2022-12-11T08:06:15.625Z,52.92
2022-12-11T08:08:43.389Z,49.67
2022-12-11T08:11:15.508Z,45.35
2022-12-11T08:13:43.768Z,46.75
2022-12-11T08:16:38.145Z,51.10
2022-12-11T08:19:05.692Z,53.55
2022-12-11T08:21:33.393Z,49.08
2022-12-11T08:24:01.119Z,48.63
2022-12-11T08:26:31.461Z,55.53
2022-12-11T08:28:59.319Z,49.92
2022-12-11T08:31:26.720Z,40.47
2022-12-11T08:33:56.324Z,45.75
2022-12-11T08:36:24.067Z,46.17
2022-12-11T08:38:52.212Z,42.40
2022-12-11T08:41:22.463Z,44.20
2022-12-11T08:46:17.759Z,46.05
2022-12-11T08:48:45.587Z,46.65
2022-12-11T08:51:15.499Z,44.65
2022-12-11T08:53:43.622Z,44.55
2022-12-11T08:56:13.657Z,42.22
2022-12-11T08:58:41.381Z,43.70
2022-12-11T09:01:14.059Z,40.65
2022-12-11T09:03:42.152Z,40.55
2022-12-11T09:06:12.606Z,38.03
2022-12-11T09:08:40.561Z,42.70
2022-12-11T09:11:11.204Z,46.60
2022-12-11T09:13:39.297Z,43.53
2022-12-11T09:16:09.713Z,44.22
2022-12-11T09:18:38.216Z,40.50
2022-12-11T09:21:08.255Z,36.60
2022-12-11T09:23:36.144Z,42.53
2022-12-11T09:26:07.340Z,37.25
2022-12-11T09:28:35.009Z,36.10
2022-12-11T09:31:03.317Z,45.05
2022-12-11T09:33:31.057Z,53.95
2022-12-11T09:36:02.872Z,43.00
2022-12-11T09:38:31.458Z,39.92
2022-12-11T09:40:59.366Z,42.58
2022-12-11T09:43:38.806Z,47.85
2022-12-11T09:46:08.117Z,53.50
2022-12-11T09:48:35.802Z,49.40
2022-12-11T09:51:14.957Z,56.75
2022-12-11T09:53:42.492Z,56.42
2022-12-11T09:56:26.504Z,62.50
2022-12-11T09:59:04.390Z,50.22
2022-12-11T10:01:48.261Z,57.95
2022-12-11T10:04:28.094Z,63.90
2022-12-11T10:07:07.815Z,54.70
2022-12-11T10:09:38.624Z,74.75
2022-12-11T10:12:32.397Z,77.13
2022-12-11T10:15:35.272Z,74.78
2022-12-11T10:18:05.089Z,77.93
2022-12-11T10:23:07.586Z,71.50
2022-12-11T10:25:42.962Z,52.75
2022-12-11T10:28:18.830Z,54.70
2022-12-11T10:30:51.813Z,57.63
2022-12-11T10:33:23.167Z,59.20
2022-12-11T10:35:58.426Z,59.47
2022-12-11T10:38:29.121Z,68.20
2022-12-11T10:41:02.698Z,69.30
2022-12-11T10:43:38.355Z,71.15
2022-12-11T10:46:13.432Z,69.95
2022-12-11T10:48:56.204Z,69.88
2022-12-11T10:51:33.987Z,65.75
2022-12-11T10:54:22.277Z,73.70
2022-12-11T10:56:50.398Z,68.38
2022-12-11T10:59:31.287Z,68.90
2022-12-11T11:01:59.334Z,77.35
2022-12-11T11:04:32.458Z,75.90
2022-12-11T11:07:24.984Z,74.95
2022-12-11T11:10:13.830Z,71.25
2022-12-11T11:15:19.612Z,67.78
2022-12-11T11:17:55.684Z,71.45
2022-12-11T11:20:30.483Z,68.05
2022-12-11T11:23:04.852Z,58.10
2022-12-11T11:25:36.436Z,63.10
2022-12-11T11:28:16.056Z,66.22
2022-12-11T11:30:55.425Z,83.30
2022-12-11T11:33:24.168Z,93.68
2022-12-11T11:35:57.557Z,88.07
2022-12-11T11:38:39.110Z,78.90
2022-12-11T11:41:27.297Z,78.10
2022-12-11T11:44:01.238Z,85.35
2022-12-11T11:46:47.270Z,85.63
2022-12-11T11:49:48.602Z,88.55
2022-12-11T11:55:10.093Z,92.72
2022-12-11T11:58:11.075Z,70.13
2022-12-11T12:00:38.910Z,72.90
2022-12-11T12:03:33.246Z,68.43
2022-12-11T12:06:14.901Z,70.45
2022-12-11T12:08:45.864Z,82.20
2022-12-11T12:12:03.836Z,80.47
2022-12-11T12:14:59.627Z,85.47
2022-12-11T12:17:31.623Z,75.38
2022-12-11T12:20:08.583Z,1.05
2022-12-11T12:23:12.443Z,1.80
2022-12-11T12:26:14.472Z,1.60
2022-12-11T12:29:03.919Z,1.00
2022-12-11T12:31:33.783Z,0.95
2022-12-11T12:34:04.471Z,1.80
2022-12-11T12:36:38.879Z,1.05
2022-12-11T12:39:12.466Z,2.10
2022-12-11T12:41:53.653Z,0.90
2022-12-11T12:44:25.769Z,56.53
2022-12-11T12:47:05.959Z,51.20
2022-12-11T12:49:43.358Z,53.05
2022-12-11T12:52:24.346Z,57.38
2022-12-11T12:55:14.903Z,60.95
2022-12-11T12:58:03.456Z,59.70
2022-12-11T13:00:34.239Z,54.15
2022-12-11T13:03:30.428Z,51.83
2022-12-11T13:06:00.327Z,51.40
2022-12-11T13:08:29.274Z,27.50
2022-12-11T13:11:04.714Z,14.65
2022-12-11T13:13:35.409Z,9.15
2022-12-11T13:16:26.327Z,7.45
2022-12-11T13:18:54.331Z,19.23
2022-12-11T13:21:35.596Z,25.63
2022-12-11T13:25:01.732Z,30.50
2022-12-11T13:27:43.949Z,27.27
2022-12-11T13:30:17.644Z,42.45
2022-12-11T13:32:59.435Z,41.42
2022-12-11T13:35:27.310Z,30.95
2022-12-11T13:37:56.771Z,39.05
2022-12-11T13:40:28.144Z,47.50
2022-12-11T13:43:03.277Z,52.22
2022-12-11T13:45:44.869Z,46.83
2022-12-11T13:48:28.462Z,49.85
2022-12-11T13:50:56.839Z,44.63
2022-12-11T13:53:24.717Z,45.58
2022-12-11T13:56:16.984Z,52.30
2022-12-11T13:58:44.898Z,51.15
2022-12-11T14:01:21.991Z,49.25
2022-12-11T14:03:57.057Z,45.50
2022-12-11T14:06:26.625Z,51.05
2022-12-11T14:08:57.502Z,52.75
2022-12-11T14:11:44.817Z,53.78
2022-12-11T14:14:31.067Z,56.88
2022-12-11T14:16:59.456Z,56.45
2022-12-11T14:19:27.323Z,58.42
2022-12-11T14:22:02.735Z,62.08
2022-12-11T14:24:31.259Z,67.95
2022-12-11T14:26:59.286Z,78.85
2022-12-11T14:29:34.336Z,63.67
2022-12-11T14:32:03.945Z,72.72
2022-12-11T14:34:45.328Z,68.28
2022-12-11T14:37:15.502Z,59.90
2022-12-11T14:40:10.377Z,58.15
2022-12-11T14:42:43.746Z,57.90
2022-12-11T14:45:32.910Z,62.60
2022-12-11T14:48:01.150Z,72.00
2022-12-11T14:50:38.285Z,68.80
2022-12-11T14:53:19.839Z,76.40
2022-12-11T14:55:49.510Z,78.90
2022-12-11T14:58:20.396Z,77.13
2022-12-11T15:00:59.829Z,66.18
2022-12-11T15:03:35.122Z,72.50
2022-12-11T15:06:03.670Z,70.57
2022-12-11T15:08:34.283Z,78.80
2022-12-11T15:11:01.873Z,77.15
2022-12-11T15:13:29.603Z,73.30
2022-12-11T15:15:57.909Z,80.47
2022-12-11T15:18:34.137Z,86.93
2022-12-11T15:21:03.708Z,87.80
2022-12-11T15:23:31.719Z,86.22
2022-12-11T15:26:02.113Z,82.30
2022-12-11T15:28:35.792Z,80.45
2022-12-11T15:31:08.865Z,88.20
2022-12-11T15:33:47.819Z,94.75
2022-12-11T15:36:34.849Z,84.15
2022-12-11T15:39:03.044Z,99.65
2022-12-11T15:41:33.610Z,79.20
2022-12-11T15:44:03.254Z,72.13
2022-12-11T15:46:35.646Z,75.50
2022-12-11T15:49:03.338Z,76.47
2022-12-11T15:51:31.240Z,70.72
2022-12-11T15:53:58.938Z,79.88
2022-12-11T15:56:26.989Z,76.50
2022-12-11T15:58:54.718Z,85.57
2022-12-11T16:01:22.842Z,72.57
2022-12-11T16:03:50.543Z,71.38
2022-12-11T16:06:18.303Z,73.07
2022-12-11T16:08:46.247Z,77.03
2022-12-11T16:11:14.624Z,82.70
2022-12-11T16:13:42.598Z,86.90
2022-12-11T16:16:10.963Z,73.05
2022-12-11T16:18:39.645Z,91.75
2022-12-11T16:21:07.363Z,85.20
2022-12-11T16:23:35.189Z,87.93
2022-12-11T16:26:07.062Z,83.65
2022-12-11T16:28:34.834Z,84.20
2022-12-11T16:31:02.679Z,85.35
2022-12-11T16:33:30.377Z,91.82
2022-12-11T16:35:59.352Z,99.40
2022-12-11T16:38:26.968Z,78.10
2022-12-11T16:41:04.479Z,71.43
2022-12-11T16:43:33.289Z,70.75
2022-12-11T16:46:01.168Z,92.03
2022-12-11T16:48:28.976Z,92.03
2022-12-11T16:50:57.259Z,96.45
2022-12-11T16:53:25.293Z,99.60
2022-12-11T16:55:53.178Z,0.90
2022-12-11T16:58:21.486Z,82.40
2022-12-11T17:00:49.496Z,98.50
2022-12-11T17:03:17.440Z,72.45
2022-12-11T17:05:45.160Z,68.00
2022-12-11T17:08:13.024Z,81.78
2022-12-11T17:10:41.947Z,86.55
2022-12-11T17:13:09.688Z,3.17
2022-12-11T17:15:41.617Z,61.30
2022-12-11T17:18:10.098Z,1.40
2022-12-11T17:20:43.926Z,1.10
2022-12-11T17:23:13.531Z,1.17
2022-12-11T17:25:42.680Z,1.10
2022-12-11T17:28:10.505Z,1.20
2022-12-11T17:30:42.219Z,1.00
2022-12-11T17:33:12.691Z,1.00
2022-12-11T17:35:40.494Z,1.05
2022-12-11T17:38:10.065Z,0.90
2022-12-11T17:40:44.109Z,1.00
2022-12-11T17:43:12.578Z,1.20
2022-12-11T17:45:48.114Z,1.30
2022-12-11T17:48:16.044Z,1.10
2022-12-11T17:50:46.713Z,1.13
2022-12-11T17:53:16.035Z,1.00
2022-12-11T17:55:45.274Z,1.08
2022-12-11T17:58:19.130Z,0.90
2022-12-11T18:00:48.487Z,0.95
2022-12-11T18:03:16.221Z,1.00
2022-12-11T18:05:44.374Z,1.05
2022-12-11T18:08:20.762Z,1.00
2022-12-11T18:13:16.269Z,0.73
2022-12-11T18:15:44.158Z,0.70
2022-12-11T18:18:12.693Z,0.77
2022-12-11T18:20:40.463Z,1.00
2022-12-11T18:23:08.312Z,0.85
2022-12-11T18:25:35.981Z,1.20
2022-12-11T18:28:03.899Z,1.00
2022-12-11T18:30:31.596Z,1.00
2022-12-11T18:32:59.719Z,0.77
2022-12-11T18:35:30.691Z,0.88
2022-12-11T18:37:58.660Z,0.90
2022-12-11T18:40:26.420Z,0.90
2022-12-11T18:42:54.237Z,0.90
2022-12-11T18:45:22.562Z,0.73
2022-12-11T18:47:52.176Z,1.10
2022-12-11T18:50:21.199Z,0.65
2022-12-11T18:52:49.132Z,0.90
2022-12-11T18:55:16.889Z,0.80
2022-12-11T18:57:44.520Z,1.02
2022-12-11T19:00:13.685Z,0.88
2022-12-11T19:02:41.348Z,0.70
2022-12-11T19:05:09.619Z,0.82
2022-12-11T19:07:37.748Z,0.80
2022-12-11T19:10:05.764Z,0.90
2022-12-11T19:12:33.470Z,0.90
2022-12-11T19:15:01.369Z,0.70
2022-12-11T19:17:29.963Z,0.75
2022-12-11T19:19:57.841Z,0.70
2022-12-11T19:22:25.522Z,0.80
2022-12-11T19:24:53.374Z,0.70
2022-12-11T19:27:21.436Z,0.90
2022-12-11T19:29:49.261Z,0.95
2022-12-11T19:32:17.001Z,0.60
2022-12-11T19:34:44.754Z,0.68
2022-12-11T19:37:12.632Z,0.60
2022-12-11T19:39:40.910Z,0.70
2022-12-11T19:42:08.641Z,0.73
2022-12-11T19:44:36.463Z,0.65
2022-12-11T19:47:04.226Z,0.77
2022-12-11T19:49:32.067Z,0.90
2022-12-11T19:51:59.995Z,0.73
2022-12-11T19:54:27.806Z,0.80
2022-12-11T19:56:55.494Z,0.70
2022-12-11T19:59:23.223Z,0.80
2022-12-11T20:01:50.981Z,0.63
2022-12-11T20:04:20.288Z,0.50
2022-12-11T20:06:48.461Z,0.70
2022-12-11T20:09:16.896Z,0.82
2022-12-11T20:11:45.672Z,1.00
2022-12-11T20:14:23.732Z,0.77
2022-12-11T20:17:10.105Z,1.00
2022-12-11T20:19:40.559Z,0.93
2022-12-11T20:22:09.294Z,0.88
2022-12-11T20:24:37.016Z,0.95
2022-12-11T20:27:04.994Z,0.90
2022-12-11T20:29:32.829Z,0.85
2022-12-11T20:32:00.659Z,0.60
2022-12-11T20:34:28.416Z,0.60
2022-12-11T20:36:56.459Z,0.80
2022-12-11T20:39:24.175Z,0.60
2022-12-11T20:41:52.013Z,0.68
2022-12-11T20:44:20.207Z,0.70
2022-12-11T20:46:48.054Z,0.50
2022-12-11T20:49:15.761Z,0.63
2022-12-11T20:51:44.046Z,0.65
2022-12-11T20:54:11.906Z,0.40
2022-12-11T20:56:39.895Z,0.70
2022-12-11T20:59:07.658Z,0.60
2022-12-11T21:01:35.534Z,0.70
2022-12-11T21:04:03.439Z,0.50
2022-12-11T21:06:35.568Z,0.60
2022-12-11T21:09:11.583Z,0.65
2022-12-11T21:11:39.421Z,0.80
2022-12-11T21:14:07.325Z,0.55
2022-12-11T21:16:39.494Z,0.70
2022-12-11T21:19:10.199Z,0.50
2022-12-11T21:21:40.236Z,0.55
2022-12-11T21:24:08.207Z,0.52
2022-12-11T21:26:36.615Z,0.80
2022-12-11T21:29:04.382Z,0.60
2022-12-11T21:31:31.937Z,0.70
2022-12-11T21:34:00.298Z,0.40
2022-12-11T21:36:28.039Z,0.55
2022-12-11T21:38:55.650Z,0.60
2022-12-11T21:41:24.948Z,0.45
2022-12-11T21:46:42.350Z,0.60
2022-12-11T21:49:10.152Z,0.50
2022-12-11T21:51:46.886Z,0.50
2022-12-11T21:54:18.525Z,0.57
2022-12-11T21:56:46.453Z,0.60
2022-12-11T21:59:14.798Z,0.75
2022-12-11T22:01:43.974Z,0.52
2022-12-11T22:04:13.499Z,0.57
2022-12-11T22:06:43.491Z,0.63
2022-12-11T22:09:13.098Z,0.57
2022-12-11T22:11:42.141Z,0.55
2022-12-11T22:14:11.897Z,0.70
2022-12-11T22:16:39.572Z,0.55
2022-12-11T22:19:07.983Z,0.60
2022-12-11T22:21:35.610Z,0.60
2022-12-11T22:24:03.398Z,0.70
2022-12-11T22:26:31.104Z,0.45
2022-12-11T22:28:58.750Z,0.60
2022-12-11T22:31:27.934Z,0.45
2022-12-11T22:33:56.280Z,0.68
2022-12-11T22:36:25.357Z,0.40
2022-12-11T22:38:53.460Z,0.85
2022-12-11T22:41:30.070Z,0.55
2022-12-11T22:43:58.819Z,0.82
2022-12-11T22:46:29.471Z,0.70
2022-12-11T22:48:57.296Z,0.50
2022-12-11T22:51:25.050Z,0.70
2022-12-11T22:53:52.790Z,0.57
2022-12-11T22:56:20.498Z,0.40
2022-12-11T22:58:48.203Z,0.32
2022-12-11T23:01:17.584Z,0.50
2022-12-11T23:03:45.456Z,0.60
2022-12-11T23:06:15.973Z,0.40
2022-12-11T23:08:44.147Z,0.40
2022-12-11T23:11:16.401Z,0.50
2022-12-11T23:13:44.083Z,0.50
2022-12-11T23:16:12.129Z,0.40
2022-12-11T23:18:40.838Z,0.40
2022-12-11T23:21:08.653Z,0.52
2022-12-11T23:23:36.689Z,0.40
2022-12-11T23:26:04.989Z,0.70
2022-12-11T23:28:32.760Z,0.50
2022-12-11T23:31:00.705Z,0.40
2022-12-11T23:33:28.438Z,0.57
2022-12-11T23:35:56.142Z,0.52
2022-12-11T23:38:24.548Z,0.40
2022-12-11T23:40:52.292Z,0.75
2022-12-11T23:43:20.199Z,0.60
2022-12-11T23:45:47.917Z,0.47
2022-12-11T23:48:15.762Z,0.40
2022-12-11T23:50:43.802Z,0.40
2022-12-11T23:53:11.884Z,0.40
2022-12-11T23:55:42.023Z,0.40
2022-12-11T23:58:10.939Z,0.40
